createdAt,value
2018-10-18T00:00:17.730Z,0.00
2018-10-18T00:01:17.713Z,0.00
2018-10-18T00:02:17.913Z,0.00
2018-10-18T00:03:17.969Z,0.00
2018-10-18T00:04:17.982Z,0.00
2018-10-18T00:05:18.076Z,0.00
2018-10-18T00:06:18.246Z,0.00
2018-10-18T00:07:18.259Z,0.00
2018-10-18T00:08:18.352Z,0.00
2018-10-18T00:09:18.446Z,0.00
2018-10-18T00:10:18.536Z,4.00
2018-10-18T00:11:18.633Z,0.00
2018-10-18T00:12:18.723Z,0.00
2018-10-18T00:13:18.813Z,0.00
2018-10-18T00:14:18.998Z,0.00
2018-10-18T00:15:18.997Z,0.00
2018-10-18T00:16:19.089Z,0.00
2018-10-18T00:17:19.182Z,0.00
2018-10-18T00:18:19.276Z,0.00
2018-10-18T00:19:19.368Z,0.00
2018-10-18T00:20:19.459Z,0.00
2018-10-18T00:21:19.550Z,0.00
2018-10-18T00:22:19.642Z,0.00
2018-10-18T00:23:19.734Z,0.00
2018-10-18T00:24:19.827Z,0.00
2018-10-18T00:25:19.917Z,0.00
2018-10-18T00:26:20.011Z,0.00
2018-10-18T00:27:20.104Z,0.00
2018-10-18T00:28:20.195Z,0.00
2018-10-18T00:29:20.287Z,0.00
2018-10-18T00:30:20.519Z,0.00
2018-10-18T00:31:20.472Z,0.00
2018-10-18T00:32:20.566Z,0.00
2018-10-18T00:33:20.656Z,0.00
2018-10-18T00:34:20.746Z,0.00
2018-10-18T00:35:20.837Z,0.00
2018-10-18T00:36:20.930Z,0.00
2018-10-18T00:37:21.020Z,0.00
2018-10-18T00:38:21.113Z,0.00
2018-10-18T00:39:21.203Z,0.00
2018-10-18T00:40:21.293Z,0.00
2018-10-18T00:41:21.386Z,0.00
2018-10-18T00:42:21.483Z,0.00
2018-10-18T00:43:21.557Z,0.00
2018-10-18T00:44:21.658Z,0.00
2018-10-18T00:45:21.749Z,0.00
2018-10-18T00:46:21.842Z,0.00
2018-10-18T00:47:21.933Z,0.00
2018-10-18T00:48:22.027Z,0.00
2018-10-18T00:49:22.126Z,0.00
2018-10-18T00:50:22.216Z,0.00
2018-10-18T00:51:22.310Z,0.00
2018-10-18T00:52:22.394Z,0.00
2018-10-18T00:53:22.493Z,0.00
2018-10-18T00:54:22.587Z,0.00
2018-10-18T00:55:22.676Z,0.00
2018-10-18T00:56:22.763Z,0.00
2018-10-18T00:57:22.850Z,0.00
2018-10-18T00:58:22.943Z,0.00
2018-10-18T00:59:23.034Z,0.00
2018-10-18T01:00:23.127Z,0.00
2018-10-18T01:01:23.219Z,0.00
2018-10-18T01:02:23.310Z,0.00
2018-10-18T01:03:23.404Z,0.00
2018-10-18T01:04:23.495Z,0.00
2018-10-18T01:05:23.588Z,0.00
2018-10-18T01:06:23.676Z,0.00
2018-10-18T01:07:23.769Z,0.00
2018-10-18T01:08:23.861Z,0.00
2018-10-18T01:09:23.952Z,0.00
2018-10-18T01:10:24.046Z,0.00
2018-10-18T01:11:24.138Z,0.00
2018-10-18T01:12:24.367Z,0.00
2018-10-18T01:13:24.318Z,0.00
2018-10-18T01:15:55.898Z,0.00
2018-10-18T01:16:55.983Z,0.00
2018-10-18T01:17:56.119Z,0.00
2018-10-18T01:18:56.164Z,0.00
2018-10-18T01:19:56.264Z,0.00
2018-10-18T01:20:56.345Z,0.00
2018-10-18T01:21:56.438Z,0.00
2018-10-18T01:22:56.528Z,0.00
2018-10-18T01:23:56.657Z,0.00
2018-10-18T01:24:56.710Z,0.00
2018-10-18T01:25:56.828Z,0.00
2018-10-18T01:26:56.894Z,0.00
2018-10-18T01:27:56.986Z,0.00
2018-10-18T01:28:57.077Z,0.00
2018-10-18T01:29:57.201Z,0.00
2018-10-18T01:30:57.264Z,0.00
2018-10-18T01:31:57.387Z,0.00
2018-10-18T01:32:57.445Z,0.00
2018-10-18T01:33:57.534Z,0.00
2018-10-18T01:34:57.621Z,0.00
2018-10-18T01:35:57.719Z,0.00
2018-10-18T01:36:57.808Z,0.00
2018-10-18T01:37:57.946Z,0.00
2018-10-18T01:38:57.997Z,0.00
2018-10-18T01:39:58.111Z,0.00
2018-10-18T01:40:58.205Z,0.00
2018-10-18T01:41:58.324Z,4.00
2018-10-18T01:42:58.387Z,0.00
2018-10-18T01:43:58.519Z,0.00
2018-10-18T01:44:58.572Z,0.00
2018-10-18T01:45:58.659Z,0.00
2018-10-18T01:46:58.751Z,0.00
2018-10-18T01:47:58.848Z,0.00
2018-10-18T01:48:58.932Z,0.00
2018-10-18T01:49:59.036Z,0.00
2018-10-18T01:50:59.112Z,0.00
2018-10-18T01:51:59.216Z,0.00
2018-10-18T01:52:59.296Z,0.00
2018-10-18T01:53:59.462Z,0.00
2018-10-18T01:54:59.483Z,0.00
2018-10-18T01:55:59.594Z,0.00
2018-10-18T01:56:59.664Z,0.00
2018-10-18T01:57:59.754Z,0.00
2018-10-18T01:58:59.847Z,0.00
2018-10-18T01:59:59.977Z,0.00
2018-10-18T02:01:00.029Z,0.00
2018-10-18T02:02:00.183Z,0.00
2018-10-18T02:03:00.214Z,0.00
2018-10-18T02:04:00.308Z,0.00
2018-10-18T02:05:00.401Z,0.00
2018-10-18T02:06:00.509Z,0.00
2018-10-18T02:07:00.577Z,0.00
2018-10-18T02:08:00.673Z,0.00
2018-10-18T02:09:00.760Z,0.00
2018-10-18T02:10:00.853Z,0.00
2018-10-18T02:11:00.942Z,0.00
2018-10-18T02:12:01.055Z,0.00
2018-10-18T02:13:01.131Z,0.00
2018-10-18T02:14:01.222Z,0.00
2018-10-18T02:15:01.315Z,0.00
2018-10-18T02:16:01.405Z,0.00
2018-10-18T02:17:01.497Z,0.00
2018-10-18T02:18:01.614Z,0.00
2018-10-18T02:19:01.711Z,0.00
2018-10-18T02:20:01.773Z,0.00
2018-10-18T02:21:01.875Z,0.00
2018-10-18T02:22:01.949Z,0.00
2018-10-18T02:23:02.040Z,0.00
2018-10-18T02:24:02.147Z,0.00
2018-10-18T02:25:02.264Z,0.00
2018-10-18T02:26:02.319Z,0.00
2018-10-18T02:27:02.411Z,0.00
2018-10-18T02:28:02.505Z,0.00
2018-10-18T02:29:02.599Z,0.00
2018-10-18T02:30:02.737Z,0.00
2018-10-18T02:31:02.803Z,28.00
2018-10-18T02:32:02.893Z,0.00
2018-10-18T02:33:03.005Z,0.00
2018-10-18T02:34:03.076Z,0.00
2018-10-18T02:35:03.176Z,0.00
2018-10-18T02:36:03.364Z,0.00
2018-10-18T02:37:03.360Z,0.00
2018-10-18T02:38:03.447Z,0.00
2018-10-18T02:39:03.537Z,0.00
2018-10-18T02:40:03.631Z,0.00
2018-10-18T02:41:03.724Z,0.00
2018-10-18T02:42:03.915Z,0.00
2018-10-18T02:43:03.907Z,0.00
2018-10-18T02:44:03.999Z,0.00
2018-10-18T02:45:04.081Z,0.00
2018-10-18T02:46:04.180Z,0.00
2018-10-18T02:47:04.276Z,0.00
2018-10-18T02:48:04.443Z,0.00
2018-10-18T02:49:04.459Z,0.00
2018-10-18T02:50:04.552Z,0.00
2018-10-18T02:51:04.643Z,0.00
2018-10-18T02:52:04.735Z,0.00
2018-10-18T02:53:04.828Z,0.00
2018-10-18T02:54:04.952Z,0.00
2018-10-18T02:55:05.015Z,0.00
2018-10-18T02:56:05.106Z,0.00
2018-10-18T02:57:05.197Z,0.00
2018-10-18T02:58:05.287Z,0.00
2018-10-18T02:59:05.378Z,0.00
2018-10-18T03:00:05.510Z,0.00
2018-10-18T03:01:05.570Z,0.00
2018-10-18T03:02:05.659Z,0.00
2018-10-18T03:03:05.768Z,0.00
2018-10-18T03:04:05.868Z,0.00
2018-10-18T03:05:05.961Z,0.00
2018-10-18T03:06:06.094Z,0.00
2018-10-18T03:07:06.143Z,0.00
2018-10-18T03:08:06.236Z,0.00
2018-10-18T03:09:06.322Z,0.00
2018-10-18T03:10:06.416Z,0.00
2018-10-18T03:11:06.507Z,0.00
2018-10-18T03:12:06.649Z,0.00
2018-10-18T03:13:06.692Z,0.00
2018-10-18T03:14:06.783Z,0.00
2018-10-18T03:15:06.875Z,0.00
2018-10-18T03:16:07.045Z,0.00
2018-10-18T03:17:07.067Z,0.00
2018-10-18T03:18:07.244Z,0.00
2018-10-18T03:19:07.253Z,0.00
2018-10-18T03:20:07.344Z,0.00
2018-10-18T03:21:07.439Z,0.00
2018-10-18T03:22:07.533Z,0.00
2018-10-18T03:23:07.616Z,0.00
2018-10-18T03:24:07.770Z,0.00
2018-10-18T03:25:07.798Z,0.00
2018-10-18T03:26:07.893Z,0.00
2018-10-18T03:27:07.980Z,0.00
2018-10-18T03:28:08.071Z,0.00
2018-10-18T03:29:08.150Z,0.00
2018-10-18T03:30:08.315Z,0.00
2018-10-18T03:31:08.338Z,0.00
2018-10-18T03:32:08.429Z,0.00
2018-10-18T03:33:08.519Z,0.00
2018-10-18T03:34:08.616Z,0.00
2018-10-18T03:35:08.714Z,0.00
2018-10-18T03:36:08.897Z,0.00
2018-10-18T03:37:08.897Z,0.00
2018-10-18T03:38:08.988Z,0.00
2018-10-18T03:39:09.083Z,0.00
2018-10-18T03:40:09.173Z,0.00
2018-10-18T03:41:09.263Z,0.00
2018-10-18T03:42:09.435Z,0.00
2018-10-18T03:43:09.440Z,0.00
2018-10-18T03:44:09.535Z,0.00
2018-10-18T03:45:09.621Z,0.00
2018-10-18T03:46:09.713Z,0.00
2018-10-18T03:47:09.803Z,0.00
2018-10-18T03:48:09.970Z,0.00
2018-10-18T03:49:09.989Z,0.00
2018-10-18T03:50:10.083Z,0.00
2018-10-18T03:51:10.176Z,0.00
2018-10-18T03:52:10.264Z,0.00
2018-10-18T03:53:10.358Z,0.00
2018-10-18T03:54:10.507Z,0.00
2018-10-18T03:55:10.541Z,0.00
2018-10-18T03:56:10.636Z,0.00
2018-10-18T03:57:10.723Z,0.00
2018-10-18T03:58:10.811Z,0.00
2018-10-18T03:59:10.900Z,0.00
2018-10-18T04:00:11.048Z,0.00
2018-10-18T04:01:11.070Z,0.00
2018-10-18T04:02:11.161Z,0.00
2018-10-18T04:03:11.246Z,0.00
2018-10-18T04:04:11.338Z,0.00
2018-10-18T04:05:11.430Z,0.00
2018-10-18T04:06:11.533Z,0.00
2018-10-18T04:07:11.603Z,0.00
2018-10-18T04:08:11.694Z,0.00
2018-10-18T04:09:11.787Z,0.00
2018-10-18T04:10:11.877Z,0.00
2018-10-18T04:11:11.957Z,0.00
2018-10-18T04:12:12.152Z,0.00
2018-10-18T04:13:12.146Z,0.00
2018-10-18T04:14:12.232Z,0.00
2018-10-18T04:15:12.321Z,0.00
2018-10-18T04:16:12.422Z,0.00
2018-10-18T04:17:12.517Z,0.00
2018-10-18T04:18:12.614Z,0.00
2018-10-18T04:19:12.698Z,0.00
2018-10-18T04:20:12.786Z,0.00
2018-10-18T04:21:12.877Z,4.00
2018-10-18T04:22:12.969Z,0.00
2018-10-18T04:23:13.061Z,0.00
2018-10-18T04:24:13.190Z,0.00
2018-10-18T04:25:13.242Z,0.00
2018-10-18T04:26:13.331Z,0.00
2018-10-18T04:27:13.419Z,0.00
2018-10-18T04:28:13.514Z,0.00
2018-10-18T04:29:13.620Z,0.00
2018-10-18T04:30:13.824Z,0.00
2018-10-18T04:31:13.794Z,4.00
2018-10-18T04:32:13.879Z,4.00
2018-10-18T04:33:13.970Z,4.00
2018-10-18T04:34:14.063Z,4.00
2018-10-18T04:35:14.154Z,4.00
2018-10-18T04:36:14.348Z,4.00
2018-10-18T04:37:14.357Z,4.00
2018-10-18T04:38:14.431Z,4.00
2018-10-18T04:39:14.524Z,4.00
2018-10-18T04:40:14.616Z,4.00
2018-10-18T04:41:14.706Z,4.00
2018-10-18T04:42:14.927Z,4.00
2018-10-18T04:43:14.893Z,4.00
2018-10-18T04:44:14.984Z,4.00
2018-10-18T04:45:15.081Z,4.00
2018-10-18T04:46:15.160Z,4.00
2018-10-18T04:47:15.309Z,4.00
2018-10-18T04:48:15.400Z,4.00
2018-10-18T04:49:15.446Z,4.00
2018-10-18T04:50:15.535Z,0.00
2018-10-18T04:51:15.649Z,4.00
2018-10-18T04:52:15.738Z,4.00
2018-10-18T04:53:15.830Z,4.00
2018-10-18T04:54:15.925Z,4.00
2018-10-18T04:55:16.100Z,4.00
2018-10-18T04:56:16.110Z,4.00
2018-10-18T04:57:16.203Z,4.00
2018-10-18T04:58:16.294Z,4.00
2018-10-18T04:59:16.386Z,4.00
2018-10-18T05:00:16.477Z,4.00
2018-10-18T05:01:16.684Z,4.00
2018-10-18T05:02:16.668Z,4.00
2018-10-18T05:03:16.757Z,4.00
2018-10-18T05:04:16.849Z,4.00
2018-10-18T05:05:16.943Z,4.00
2018-10-18T05:06:17.036Z,4.00
2018-10-18T05:07:17.221Z,4.00
2018-10-18T05:08:17.224Z,4.00
2018-10-18T05:09:17.313Z,4.00
2018-10-18T05:10:17.409Z,4.00
2018-10-18T05:11:17.522Z,4.00
2018-10-18T05:12:17.602Z,4.00
2018-10-18T05:13:17.782Z,8.00
2018-10-18T05:14:17.760Z,4.00
2018-10-18T05:15:17.851Z,4.00
2018-10-18T05:16:17.946Z,4.00
2018-10-18T05:17:18.031Z,4.00
2018-10-18T05:18:18.111Z,4.00
2018-10-18T05:19:18.325Z,4.00
2018-10-18T05:20:18.295Z,4.00
2018-10-18T05:21:18.385Z,8.00
2018-10-18T05:22:18.478Z,4.00
2018-10-18T05:23:18.572Z,8.00
2018-10-18T05:24:18.664Z,8.00
2018-10-18T05:25:18.879Z,8.00
2018-10-18T05:26:18.851Z,8.00
2018-10-18T05:27:18.940Z,8.00
2018-10-18T05:28:19.033Z,12.00
2018-10-18T05:29:19.125Z,12.00
2018-10-18T05:30:19.218Z,16.00
2018-10-18T05:31:19.415Z,12.00
2018-10-18T05:32:19.401Z,16.00
2018-10-18T05:33:19.492Z,20.00
2018-10-18T05:34:19.583Z,20.00
2018-10-18T05:35:19.679Z,28.00
2018-10-18T05:36:19.755Z,28.00
2018-10-18T05:37:19.869Z,32.00
2018-10-18T05:38:19.958Z,36.00
2018-10-18T05:39:20.050Z,44.00
2018-10-18T05:40:20.148Z,52.00
2018-10-18T05:41:20.243Z,56.00
2018-10-18T05:42:20.349Z,68.00
2018-10-18T05:43:20.532Z,72.00
2018-10-18T05:44:20.517Z,84.00
2018-10-18T05:45:20.606Z,96.00
2018-10-18T05:46:20.701Z,104.00
2018-10-18T05:47:20.891Z,116.00
2018-10-18T05:48:20.887Z,124.00
2018-10-18T05:49:20.990Z,132.00
2018-10-18T05:50:21.065Z,144.00
2018-10-18T05:51:21.151Z,156.00
2018-10-18T05:52:21.240Z,168.00
2018-10-18T05:53:21.384Z,180.00
2018-10-18T05:54:21.519Z,192.00
2018-10-18T05:55:21.517Z,204.00
2018-10-18T05:56:21.608Z,220.00
2018-10-18T05:57:21.699Z,232.00
2018-10-18T05:58:21.791Z,252.00
2018-10-18T05:59:21.883Z,264.00
2018-10-18T06:00:22.095Z,280.00
2018-10-18T06:01:22.068Z,300.00
2018-10-18T06:02:22.159Z,320.00
2018-10-18T06:03:22.252Z,336.00
2018-10-18T06:04:22.343Z,360.00
2018-10-18T06:05:22.447Z,384.00
2018-10-18T06:06:22.535Z,404.00
2018-10-18T06:07:22.635Z,424.00
2018-10-18T06:08:22.713Z,444.00
2018-10-18T06:09:22.814Z,468.00
2018-10-18T06:10:22.922Z,504.00
2018-10-18T06:11:22.992Z,544.00
2018-10-18T06:12:23.099Z,580.00
2018-10-18T06:13:23.175Z,608.00
2018-10-18T06:14:23.281Z,640.00
2018-10-18T06:15:23.378Z,664.00
2018-10-18T06:16:23.466Z,688.00
2018-10-18T06:17:23.555Z,708.00
2018-10-18T06:18:23.655Z,728.00
2018-10-18T06:19:23.748Z,756.00
2018-10-18T06:20:23.841Z,796.00
2018-10-18T06:21:23.935Z,824.00
2018-10-18T06:22:24.015Z,848.00
2018-10-18T06:23:24.164Z,880.00
2018-10-18T06:24:24.200Z,924.00
2018-10-18T06:25:24.290Z,964.00
2018-10-18T06:26:24.380Z,1004.00
2018-10-18T06:27:24.471Z,1044.00
2018-10-18T06:28:24.563Z,1096.00
2018-10-18T06:29:24.655Z,1140.00
2018-10-18T06:30:24.746Z,1188.00
2018-10-18T06:31:24.842Z,1224.00
2018-10-18T06:32:24.932Z,1268.00
2018-10-18T06:33:25.025Z,1312.00
2018-10-18T06:34:25.114Z,1352.00
2018-10-18T06:35:25.207Z,1368.00
2018-10-18T06:36:25.297Z,1384.00
2018-10-18T06:37:25.482Z,1416.00
2018-10-18T06:38:25.485Z,1412.00
2018-10-18T06:39:32.719Z,1408.00
2018-10-18T06:40:25.685Z,1400.00
2018-10-18T06:41:32.938Z,1392.00
2018-10-18T06:42:33.038Z,1380.00
2018-10-18T06:43:33.647Z,1352.00
2018-10-18T06:44:33.267Z,1344.00
2018-10-18T06:45:33.370Z,1332.00
2018-10-18T06:46:26.343Z,1328.00
2018-10-18T06:47:26.484Z,1324.00
2018-10-18T06:48:26.523Z,1336.00
2018-10-18T06:49:26.685Z,1352.00
2018-10-18T06:50:26.707Z,1380.00
2018-10-18T06:51:26.801Z,1408.00
2018-10-18T06:52:26.893Z,1468.00
2018-10-18T06:53:26.986Z,1464.00
2018-10-18T06:54:27.087Z,1496.00
2018-10-18T06:55:27.160Z,1468.00
2018-10-18T06:56:27.245Z,1480.00
2018-10-18T06:57:27.336Z,1476.00
2018-10-18T06:58:27.427Z,1464.00
2018-10-18T06:59:27.517Z,1468.00
2018-10-18T07:00:27.651Z,1468.00
2018-10-18T07:01:27.701Z,1468.00
2018-10-18T07:02:27.791Z,1476.00
2018-10-18T07:03:27.892Z,1512.00
2018-10-18T07:04:27.970Z,1500.00
2018-10-18T07:05:28.061Z,1452.00
2018-10-18T07:06:28.158Z,1400.00
2018-10-18T07:07:28.247Z,1356.00
2018-10-18T07:08:28.336Z,1248.00
2018-10-18T07:09:28.432Z,1116.00
2018-10-18T07:10:28.523Z,1204.00
2018-10-18T07:11:28.617Z,1276.00
2018-10-18T07:12:28.709Z,1352.00
2018-10-18T07:13:28.802Z,1380.00
2018-10-18T07:14:28.887Z,1364.00
2018-10-18T07:15:36.139Z,1420.00
2018-10-18T07:16:29.107Z,1468.00
2018-10-18T07:17:29.238Z,1504.00
2018-10-18T07:18:29.291Z,1568.00
2018-10-18T07:19:29.383Z,1608.00
2018-10-18T07:20:29.473Z,1552.00
2018-10-18T07:21:29.567Z,1508.00
2018-10-18T07:22:29.657Z,1524.00
2018-10-18T07:23:29.745Z,1508.00
2018-10-18T07:24:29.837Z,1512.00
2018-10-18T07:25:30.085Z,1536.00
2018-10-18T07:26:30.028Z,1616.00
2018-10-18T07:27:30.110Z,1712.00
2018-10-18T07:28:30.202Z,1808.00
2018-10-18T07:29:30.299Z,1976.00
2018-10-18T07:30:30.386Z,2104.00
2018-10-18T07:31:30.480Z,2232.00
2018-10-18T07:32:30.570Z,2436.00
2018-10-18T07:33:30.663Z,2564.00
2018-10-18T07:34:30.753Z,2588.00
2018-10-18T07:35:30.845Z,2492.00
2018-10-18T07:36:30.940Z,2528.00
2018-10-18T07:37:31.030Z,2428.00
2018-10-18T07:38:31.121Z,2396.00
2018-10-18T07:39:31.213Z,2380.00
2018-10-18T07:40:31.306Z,2444.00
2018-10-18T07:41:31.393Z,2348.00
2018-10-18T07:42:31.484Z,2260.00
2018-10-18T07:43:31.578Z,2188.00
2018-10-18T07:44:31.667Z,2316.00
2018-10-18T07:45:31.765Z,2536.00
2018-10-18T07:46:31.855Z,2728.00
2018-10-18T07:47:31.975Z,2936.00
2018-10-18T07:48:32.068Z,3024.00
2018-10-18T07:49:32.158Z,3112.00
2018-10-18T07:50:32.250Z,3192.00
2018-10-18T07:51:32.341Z,3148.00
2018-10-18T07:52:32.433Z,3072.00
2018-10-18T07:53:32.543Z,3056.00
2018-10-18T07:54:32.615Z,3140.00
2018-10-18T07:55:32.701Z,3096.00
2018-10-18T07:56:32.794Z,3060.00
2018-10-18T07:57:32.888Z,3032.00
2018-10-18T07:58:32.979Z,3076.00
2018-10-18T07:59:33.074Z,3096.00
2018-10-18T08:00:33.213Z,3136.00
2018-10-18T08:01:33.257Z,3116.00
2018-10-18T08:02:33.351Z,3128.00
2018-10-18T08:03:33.443Z,3160.00
2018-10-18T08:04:33.539Z,3184.00
2018-10-18T08:05:33.631Z,3248.00
2018-10-18T08:06:33.721Z,3292.00
2018-10-18T08:07:33.814Z,3328.00
2018-10-18T08:08:33.909Z,3412.00
2018-10-18T08:09:34.001Z,3404.00
2018-10-18T08:10:34.091Z,3448.00
2018-10-18T08:11:34.185Z,3512.00
2018-10-18T08:12:34.328Z,3596.00
2018-10-18T08:13:34.383Z,3688.00
2018-10-18T08:14:34.463Z,3596.00
2018-10-18T08:15:34.556Z,3660.00
2018-10-18T08:16:34.655Z,3744.00
2018-10-18T08:17:34.840Z,3676.00
2018-10-18T08:18:34.834Z,3612.00
2018-10-18T08:19:34.925Z,3792.00
2018-10-18T08:20:35.018Z,3816.00
2018-10-18T08:21:35.110Z,3872.00
2018-10-18T08:22:35.275Z,3820.00
2018-10-18T08:23:35.295Z,3752.00
2018-10-18T08:24:35.388Z,3780.00
2018-10-18T08:25:35.480Z,3760.00
2018-10-18T08:26:35.575Z,3756.00
2018-10-18T08:27:35.661Z,3748.00
2018-10-18T08:28:35.751Z,3796.00
2018-10-18T08:29:35.845Z,3760.00
2018-10-18T08:30:35.937Z,3748.00
2018-10-18T08:31:36.070Z,3792.00
2018-10-18T08:32:36.126Z,3732.00
2018-10-18T08:33:36.217Z,3720.00
2018-10-18T08:34:36.312Z,3776.00
2018-10-18T08:35:36.404Z,3732.00
2018-10-18T08:36:36.499Z,3768.00
2018-10-18T08:37:36.698Z,3792.00
2018-10-18T08:38:36.684Z,3688.00
2018-10-18T08:39:36.776Z,3648.00
2018-10-18T08:40:36.869Z,3648.00
2018-10-18T08:41:36.961Z,3616.00
2018-10-18T08:42:37.057Z,3828.00
2018-10-18T08:43:37.150Z,3972.00
2018-10-18T08:44:37.293Z,3976.00
2018-10-18T08:45:37.336Z,3812.00
2018-10-18T08:46:37.427Z,3756.00
2018-10-18T08:47:37.520Z,3832.00
2018-10-18T08:48:37.612Z,4032.00
2018-10-18T08:49:37.752Z,4140.00
2018-10-18T08:50:37.799Z,4040.00
2018-10-18T08:51:37.892Z,4008.00
2018-10-18T08:52:37.985Z,3892.00
2018-10-18T08:53:38.077Z,4028.00
2018-10-18T08:54:38.171Z,4192.00
2018-10-18T08:55:38.347Z,4232.00
2018-10-18T08:56:38.359Z,4328.00
2018-10-18T08:57:38.452Z,4384.00
2018-10-18T08:58:38.553Z,4448.00
2018-10-18T08:59:38.665Z,4440.00
2018-10-18T09:00:38.763Z,4420.00
2018-10-18T09:01:38.854Z,4344.00
2018-10-18T09:02:38.950Z,4232.00
2018-10-18T09:03:39.040Z,4192.00
2018-10-18T09:04:39.137Z,4260.00
2018-10-18T09:05:39.242Z,4376.00
2018-10-18T09:06:39.343Z,4456.00
2018-10-18T09:07:39.437Z,4568.00
2018-10-18T09:08:39.598Z,4584.00
2018-10-18T09:09:39.618Z,4524.00
2018-10-18T09:10:39.711Z,4432.00
2018-10-18T09:11:39.805Z,4472.00
2018-10-18T09:12:39.901Z,4508.00
2018-10-18T09:13:39.992Z,4620.00
2018-10-18T09:14:40.118Z,4724.00
2018-10-18T09:15:40.174Z,4720.00
2018-10-18T09:16:40.268Z,4564.00
2018-10-18T09:17:40.363Z,4428.00
2018-10-18T09:18:40.455Z,5144.00
2018-10-18T09:19:40.552Z,4244.00
2018-10-18T09:20:40.647Z,4296.00
2018-10-18T09:21:40.740Z,4364.00
2018-10-18T09:22:40.839Z,4404.00
2018-10-18T09:23:40.946Z,4396.00
2018-10-18T09:24:41.043Z,4392.00
2018-10-18T09:25:41.142Z,4316.00
2018-10-18T09:26:41.234Z,4344.00
2018-10-18T09:27:41.327Z,4396.00
2018-10-18T09:28:41.422Z,4412.00
2018-10-18T09:29:41.508Z,4400.00
2018-10-18T09:30:41.603Z,4424.00
2018-10-18T09:31:41.697Z,4460.00
2018-10-18T09:32:41.787Z,4448.00
2018-10-18T09:33:41.881Z,4520.00
2018-10-18T09:34:41.973Z,4516.00
2018-10-18T09:35:42.063Z,4544.00
2018-10-18T09:36:42.157Z,4556.00
2018-10-18T09:37:42.266Z,4584.00
2018-10-18T09:38:42.366Z,4364.00
2018-10-18T09:39:42.455Z,4636.00
2018-10-18T09:40:42.549Z,4640.00
2018-10-18T09:41:42.645Z,4620.00
2018-10-18T09:42:42.741Z,4652.00
2018-10-18T09:43:42.833Z,4604.00
2018-10-18T09:44:42.936Z,4676.00
2018-10-18T09:45:43.030Z,4584.00
2018-10-18T09:46:43.119Z,4552.00
2018-10-18T09:47:43.212Z,4572.00
2018-10-18T09:48:43.308Z,4568.00
2018-10-18T09:49:43.401Z,4580.00
2018-10-18T09:50:43.495Z,4612.00
2018-10-18T09:51:43.589Z,4656.00
2018-10-18T09:52:43.689Z,4688.00
2018-10-18T09:53:43.778Z,4720.00
2018-10-18T09:54:43.872Z,4704.00
2018-10-18T09:55:44.054Z,6136.00
2018-10-18T09:56:44.060Z,4812.00
2018-10-18T09:57:44.143Z,4724.00
2018-10-18T09:58:44.242Z,4740.00
2018-10-18T09:59:44.336Z,4672.00
2018-10-18T10:00:44.428Z,4804.00
2018-10-18T10:01:44.524Z,4888.00
2018-10-18T10:02:44.619Z,4872.00
2018-10-18T10:03:44.700Z,4864.00
2018-10-18T10:04:44.810Z,4864.00
2018-10-18T10:05:44.908Z,4824.00
2018-10-18T10:06:44.998Z,4776.00
2018-10-18T10:07:45.093Z,4916.00
2018-10-18T10:08:45.190Z,5056.00
2018-10-18T10:09:45.282Z,5068.00
2018-10-18T10:10:45.376Z,5148.00
2018-10-18T10:11:45.570Z,5056.00
2018-10-18T10:12:45.568Z,5052.00
2018-10-18T10:13:45.730Z,5088.00
2018-10-18T10:14:45.756Z,5116.00
2018-10-18T10:15:45.852Z,5188.00
2018-10-18T10:16:45.949Z,5240.00
2018-10-18T10:17:46.087Z,5184.00
2018-10-18T10:18:46.136Z,5128.00
2018-10-18T10:19:46.228Z,5076.00
2018-10-18T10:20:46.326Z,5176.00
2018-10-18T10:21:46.421Z,5200.00
2018-10-18T10:22:46.519Z,5460.00
2018-10-18T10:23:46.615Z,5692.00
2018-10-18T10:24:46.850Z,5740.00
2018-10-18T10:25:46.810Z,5772.00
2018-10-18T10:26:46.910Z,5640.00
2018-10-18T10:27:47.006Z,5492.00
2018-10-18T10:28:47.101Z,5564.00
2018-10-18T10:29:47.198Z,5788.00
2018-10-18T10:30:47.290Z,5728.00
2018-10-18T10:31:47.387Z,5864.00
2018-10-18T10:32:47.497Z,5960.00
2018-10-18T10:33:47.577Z,5960.00
2018-10-18T10:34:47.674Z,6008.00
2018-10-18T10:35:47.892Z,5860.00
2018-10-18T10:36:47.875Z,5968.00
2018-10-18T10:37:47.968Z,5944.00
2018-10-18T10:38:48.065Z,5680.00
2018-10-18T10:39:48.166Z,5944.00
2018-10-18T10:40:48.258Z,5940.00
2018-10-18T10:41:48.354Z,6520.00
2018-10-18T10:42:48.510Z,6352.00
2018-10-18T10:43:48.545Z,6576.00
2018-10-18T10:44:48.678Z,6520.00
2018-10-18T10:45:48.767Z,6204.00
2018-10-18T10:46:48.832Z,5704.00
2018-10-18T10:47:48.932Z,5440.00
2018-10-18T10:48:49.028Z,5176.00
2018-10-18T10:49:49.124Z,4816.00
2018-10-18T10:50:49.218Z,4480.00
2018-10-18T10:51:49.311Z,4040.00
2018-10-18T10:52:49.408Z,3584.00
2018-10-18T10:53:49.507Z,3360.00
2018-10-18T10:54:49.600Z,3312.00
2018-10-18T10:55:49.698Z,3228.00
2018-10-18T10:56:49.808Z,3200.00
2018-10-18T10:57:49.908Z,3116.00
2018-10-18T10:58:50.064Z,3036.00
2018-10-18T10:59:50.099Z,2892.00
2018-10-18T11:00:50.195Z,2772.00
2018-10-18T11:01:50.292Z,2708.00
2018-10-18T11:02:50.389Z,2652.00
2018-10-18T11:03:50.484Z,2560.00
2018-10-18T11:04:50.580Z,2444.00
2018-10-18T11:05:50.687Z,2408.00
2018-10-18T11:06:50.774Z,2440.00
2018-10-18T11:07:50.873Z,2460.00
2018-10-18T11:08:50.974Z,2444.00
2018-10-18T11:09:51.138Z,2388.00
2018-10-18T11:10:51.166Z,2384.00
2018-10-18T11:11:51.306Z,2444.00
2018-10-18T11:12:51.352Z,2524.00
2018-10-18T11:13:51.448Z,2608.00
2018-10-18T11:14:51.577Z,2720.00
2018-10-18T11:15:51.640Z,2852.00
2018-10-18T11:16:51.743Z,3040.00
2018-10-18T11:17:51.842Z,3228.00
2018-10-18T11:18:51.939Z,3336.00
2018-10-18T11:19:52.073Z,3328.00
2018-10-18T11:20:52.143Z,3296.00
2018-10-18T11:21:52.229Z,3264.00
2018-10-18T11:22:52.325Z,3308.00
2018-10-18T11:23:52.457Z,3352.00
2018-10-18T11:24:52.554Z,3380.00
2018-10-18T11:25:52.643Z,3492.00
2018-10-18T11:26:52.746Z,3440.00
2018-10-18T11:27:52.805Z,3324.00
2018-10-18T11:28:52.902Z,3276.00
2018-10-18T11:29:53.014Z,3208.00
2018-10-18T11:30:53.092Z,3132.00
2018-10-18T11:31:53.246Z,3008.00
2018-10-18T11:32:53.289Z,2908.00
2018-10-18T11:33:53.381Z,2848.00
2018-10-18T11:34:53.482Z,2748.00
2018-10-18T11:35:53.607Z,2668.00
2018-10-18T11:36:53.677Z,2540.00
2018-10-18T11:37:53.788Z,2508.00
2018-10-18T11:38:53.872Z,2460.00
2018-10-18T11:39:53.970Z,2536.00
2018-10-18T11:40:54.069Z,2656.00
2018-10-18T11:41:54.196Z,2764.00
2018-10-18T11:42:54.261Z,2820.00
2018-10-18T11:43:54.380Z,2932.00
2018-10-18T11:44:54.457Z,2908.00
2018-10-18T11:45:54.554Z,2852.00
2018-10-18T11:46:54.650Z,2844.00
2018-10-18T11:47:54.749Z,2832.00
2018-10-18T11:48:54.843Z,2840.00
2018-10-18T11:49:54.992Z,2844.00
2018-10-18T11:50:55.036Z,2828.00
2018-10-18T11:51:55.151Z,2828.00
2018-10-18T11:52:55.226Z,2864.00
2018-10-18T11:53:55.336Z,2916.00
2018-10-18T11:54:55.420Z,2944.00
2018-10-18T11:55:55.529Z,2980.00
2018-10-18T11:56:55.613Z,3068.00
2018-10-18T11:57:55.710Z,3148.00
2018-10-18T11:58:55.863Z,3208.00
2018-10-18T11:59:55.906Z,3252.00
2018-10-18T12:00:56.001Z,3252.00
2018-10-18T12:01:56.152Z,3196.00
2018-10-18T12:02:56.192Z,3160.00
2018-10-18T12:03:56.283Z,3148.00
2018-10-18T12:04:56.387Z,3084.00
2018-10-18T12:05:56.467Z,3020.00
2018-10-18T12:06:56.565Z,3020.00
2018-10-18T12:07:56.699Z,3060.00
2018-10-18T12:08:56.761Z,3176.00
2018-10-18T12:09:56.862Z,3220.00
2018-10-18T12:10:56.965Z,3232.00
2018-10-18T12:11:57.055Z,3156.00
2018-10-18T12:12:57.150Z,3080.00
2018-10-18T12:13:57.290Z,3048.00
2018-10-18T12:14:57.346Z,3020.00
2018-10-18T12:15:57.440Z,2944.00
2018-10-18T12:16:57.579Z,2880.00
2018-10-18T12:17:57.640Z,2732.00
2018-10-18T12:18:57.748Z,2568.00
2018-10-18T12:19:57.847Z,2460.00
2018-10-18T12:20:57.929Z,2520.00
2018-10-18T12:21:58.034Z,2632.00
2018-10-18T12:22:58.127Z,2696.00
2018-10-18T12:23:58.223Z,2724.00
2018-10-18T12:24:58.317Z,2704.00
2018-10-18T12:25:58.484Z,2784.00
2018-10-18T12:26:58.547Z,2892.00
2018-10-18T12:27:58.591Z,3068.00
2018-10-18T12:28:58.718Z,3204.00
2018-10-18T12:29:58.788Z,3324.00
2018-10-18T12:30:58.892Z,3348.00
2018-10-18T12:31:58.998Z,3376.00
2018-10-18T12:32:59.087Z,3380.00
2018-10-18T12:33:59.185Z,3360.00
2018-10-18T12:35:00.335Z,3312.00
2018-10-18T12:35:59.562Z,3224.00
2018-10-18T12:36:59.448Z,3104.00
2018-10-18T12:37:59.679Z,3000.00
2018-10-18T12:39:00.209Z,2980.00
2018-10-18T12:39:59.795Z,2984.00